sensor_id;sensor_type;location;lat;lon;timestamp;pressure;altitude;pressure_sealevel;temperature;humidity
77110;BME280;66062;52.464;16.922;2023-08-06T00:01:47;99791.47;;;14.90;100.00
77110;BME280;66062;52.464;16.922;2023-08-06T00:04:12;99802.19;;;15.05;100.00
77110;BME280;66062;52.464;16.922;2023-08-06T00:06:37;99798.88;;;15.03;100.00
77110;BME280;66062;52.464;16.922;2023-08-06T00:09:03;99784.03;;;15.07;100.00
77110;BME280;66062;52.464;16.922;2023-08-06T00:11:29;99775.13;;;15.07;100.00
77110;BME280;66062;52.464;16.922;2023-08-06T00:13:54;99765.00;;;15.09;100.00
77110;BME280;66062;52.464;16.922;2023-08-06T00:16:19;99767.16;;;15.13;100.00
77110;BME280;66062;52.464;16.922;2023-08-06T00:18:45;99770.47;;;15.15;100.00
77110;BME280;66062;52.464;16.922;2023-08-06T00:21:10;99768.75;;;15.08;100.00
77110;BME280;66062;52.464;16.922;2023-08-06T00:23:37;99767.22;;;15.20;100.00
77110;BME280;66062;52.464;16.922;2023-08-06T00:26:03;99766.38;;;15.19;100.00
77110;BME280;66062;52.464;16.922;2023-08-06T00:28:28;99762.91;;;15.04;100.00
77110;BME280;66062;52.464;16.922;2023-08-06T00:30:54;99750.38;;;15.11;100.00
77110;BME280;66062;52.464;16.922;2023-08-06T00:33:21;99745.69;;;15.20;100.00
77110;BME280;66062;52.464;16.922;2023-08-06T00:35:47;99744.69;;;15.21;100.00
77110;BME280;66062;52.464;16.922;2023-08-06T00:38:12;99733.03;;;15.14;100.00
77110;BME280;66062;52.464;16.922;2023-08-06T00:40:38;99730.97;;;15.16;100.00
77110;BME280;66062;52.464;16.922;2023-08-06T00:43:03;99724.78;;;15.15;100.00
77110;BME280;66062;52.464;16.922;2023-08-06T00:45:29;99720.88;;;15.18;100.00
77110;BME280;66062;52.464;16.922;2023-08-06T00:47:55;99719.97;;;15.11;100.00
77110;BME280;66062;52.464;16.922;2023-08-06T00:50:21;99712.75;;;15.11;100.00
77110;BME280;66062;52.464;16.922;2023-08-06T00:52:48;99703.19;;;15.09;100.00
77110;BME280;66062;52.464;16.922;2023-08-06T00:55:14;99694.94;;;15.10;100.00
77110;BME280;66062;52.464;16.922;2023-08-06T00:57:40;99687.91;;;15.09;100.00
77110;BME280;66062;52.464;16.922;2023-08-06T01:00:07;99679.72;;;15.17;100.00
77110;BME280;66062;52.464;16.922;2023-08-06T01:02:32;99677.41;;;15.14;100.00
77110;BME280;66062;52.464;16.922;2023-08-06T01:04:58;99670.66;;;15.18;100.00
77110;BME280;66062;52.464;16.922;2023-08-06T01:07:48;99663.22;;;15.20;100.00
77110;BME280;66062;52.464;16.922;2023-08-06T01:13:23;99637.75;;;15.16;100.00
77110;BME280;66062;52.464;16.922;2023-08-06T01:15:52;99629.28;;;15.19;100.00
77110;BME280;66062;52.464;16.922;2023-08-06T01:18:19;99633.28;;;15.23;100.00
77110;BME280;66062;52.464;16.922;2023-08-06T01:20:45;99623.91;;;15.19;100.00
77110;BME280;66062;52.464;16.922;2023-08-06T01:23:10;99621.44;;;15.18;100.00
77110;BME280;66062;52.464;16.922;2023-08-06T01:25:43;99618.78;;;15.24;100.00
77110;BME280;66062;52.464;16.922;2023-08-06T01:28:17;99621.03;;;15.21;100.00
77110;BME280;66062;52.464;16.922;2023-08-06T01:30:44;99608.88;;;15.25;100.00
77110;BME280;66062;52.464;16.922;2023-08-06T01:33:16;99600.19;;;15.23;100.00
77110;BME280;66062;52.464;16.922;2023-08-06T01:35:44;99595.22;;;15.26;100.00
77110;BME280;66062;52.464;16.922;2023-08-06T01:38:12;99593.56;;;15.25;100.00
77110;BME280;66062;52.464;16.922;2023-08-06T01:40:37;99588.44;;;15.30;100.00
77110;BME280;66062;52.464;16.922;2023-08-06T01:43:02;99591.13;;;15.30;100.00
77110;BME280;66062;52.464;16.922;2023-08-06T01:45:28;99591.91;;;15.24;100.00
77110;BME280;66062;52.464;16.922;2023-08-06T01:47:53;99582.63;;;15.27;100.00
77110;BME280;66062;52.464;16.922;2023-08-06T01:50:18;99576.50;;;15.12;100.00
77110;BME280;66062;52.464;16.922;2023-08-06T01:52:44;99565.59;;;15.20;100.00
77110;BME280;66062;52.464;16.922;2023-08-06T01:55:09;99555.56;;;15.28;100.00
77110;BME280;66062;52.464;16.922;2023-08-06T01:57:35;99557.53;;;15.20;100.00
77110;BME280;66062;52.464;16.922;2023-08-06T02:00:00;99561.66;;;15.16;100.00
77110;BME280;66062;52.464;16.922;2023-08-06T02:02:25;99556.34;;;15.22;100.00
77110;BME280;66062;52.464;16.922;2023-08-06T02:04:51;99556.72;;;15.19;100.00
77110;BME280;66062;52.464;16.922;2023-08-06T02:07:16;99544.69;;;15.15;100.00
77110;BME280;66062;52.464;16.922;2023-08-06T02:09:42;99531.06;;;15.17;100.00
77110;BME280;66062;52.464;16.922;2023-08-06T02:12:07;99521.94;;;15.11;100.00
77110;BME280;66062;52.464;16.922;2023-08-06T02:14:33;99511.59;;;15.15;100.00
77110;BME280;66062;52.464;16.922;2023-08-06T02:16:58;99493.38;;;15.10;100.00
77110;BME280;66062;52.464;16.922;2023-08-06T02:19:24;99490.94;;;15.15;100.00
77110;BME280;66062;52.464;16.922;2023-08-06T02:21:49;99491.94;;;15.14;100.00
77110;BME280;66062;52.464;16.922;2023-08-06T02:24:14;99482.19;;;15.07;100.00
77110;BME280;66062;52.464;16.922;2023-08-06T02:26:40;99474.97;;;15.07;100.00
77110;BME280;66062;52.464;16.922;2023-08-06T02:29:05;99476.66;;;15.15;100.00
77110;BME280;66062;52.464;16.922;2023-08-06T02:31:30;99481.38;;;15.06;100.00
77110;BME280;66062;52.464;16.922;2023-08-06T02:33:56;99454.31;;;15.08;100.00
77110;BME280;66062;52.464;16.922;2023-08-06T02:36:22;99451.16;;;15.04;100.00
77110;BME280;66062;52.464;16.922;2023-08-06T02:38:47;99451.38;;;15.03;100.00
77110;BME280;66062;52.464;16.922;2023-08-06T02:41:13;99447.06;;;15.08;100.00
77110;BME280;66062;52.464;16.922;2023-08-06T02:43:38;99439.81;;;15.09;100.00
77110;BME280;66062;52.464;16.922;2023-08-06T02:46:03;99433.00;;;15.06;100.00
77110;BME280;66062;52.464;16.922;2023-08-06T02:48:29;99433.16;;;14.98;100.00
77110;BME280;66062;52.464;16.922;2023-08-06T02:50:58;99428.81;;;14.97;100.00
77110;BME280;66062;52.464;16.922;2023-08-06T02:53:26;99424.47;;;14.96;100.00
77110;BME280;66062;52.464;16.922;2023-08-06T02:55:52;99418.19;;;14.89;100.00
77110;BME280;66062;52.464;16.922;2023-08-06T02:58:17;99409.16;;;14.96;100.00
77110;BME280;66062;52.464;16.922;2023-08-06T03:00:58;99399.88;;;14.99;100.00
77110;BME280;66062;52.464;16.922;2023-08-06T03:03:24;99385.38;;;14.93;100.00
77110;BME280;66062;52.464;16.922;2023-08-06T03:05:53;99375.91;;;15.04;100.00
77110;BME280;66062;52.464;16.922;2023-08-06T03:08:18;99369.72;;;15.04;100.00
77110;BME280;66062;52.464;16.922;2023-08-06T03:10:50;99369.47;;;14.98;100.00
77110;BME280;66062;52.464;16.922;2023-08-06T03:13:16;99361.00;;;14.95;100.00
77110;BME280;66062;52.464;16.922;2023-08-06T03:15:42;99359.78;;;14.97;100.00
77110;BME280;66062;52.464;16.922;2023-08-06T03:18:08;99351.03;;;14.89;100.00
77110;BME280;66062;52.464;16.922;2023-08-06T03:20:33;99337.38;;;14.84;100.00
77110;BME280;66062;52.464;16.922;2023-08-06T03:22:59;99333.66;;;14.85;100.00
77110;BME280;66062;52.464;16.922;2023-08-06T03:25:25;99326.03;;;14.88;100.00
77110;BME280;66062;52.464;16.922;2023-08-06T03:27:50;99315.50;;;14.87;100.00
77110;BME280;66062;52.464;16.922;2023-08-06T03:30:15;99310.34;;;14.92;100.00
77110;BME280;66062;52.464;16.922;2023-08-06T03:32:41;99321.34;;;14.97;100.00
77110;BME280;66062;52.464;16.922;2023-08-06T03:35:06;99306.88;;;14.98;100.00
77110;BME280;66062;52.464;16.922;2023-08-06T03:37:32;99301.03;;;14.88;100.00
77110;BME280;66062;52.464;16.922;2023-08-06T03:39:57;99293.19;;;14.86;100.00
77110;BME280;66062;52.464;16.922;2023-08-06T03:42:23;99288.19;;;14.83;100.00
77110;BME280;66062;52.464;16.922;2023-08-06T03:44:48;99275.63;;;14.90;100.00
77110;BME280;66062;52.464;16.922;2023-08-06T03:47:13;99269.84;;;14.87;100.00
77110;BME280;66062;52.464;16.922;2023-08-06T03:49:39;99266.13;;;14.88;100.00
77110;BME280;66062;52.464;16.922;2023-08-06T03:52:05;99246.91;;;14.91;100.00
77110;BME280;66062;52.464;16.922;2023-08-06T03:54:30;99234.91;;;14.87;100.00
77110;BME280;66062;52.464;16.922;2023-08-06T03:56:56;99243.97;;;14.79;100.00
77110;BME280;66062;52.464;16.922;2023-08-06T03:59:21;99246.91;;;14.91;100.00
77110;BME280;66062;52.464;16.922;2023-08-06T04:01:47;99254.50;;;14.81;100.00
77110;BME280;66062;52.464;16.922;2023-08-06T04:04:12;99251.81;;;14.81;100.00
77110;BME280;66062;52.464;16.922;2023-08-06T04:06:37;99247.47;;;14.80;100.00
77110;BME280;66062;52.464;16.922;2023-08-06T04:09:03;99241.72;;;14.83;100.00
77110;BME280;66062;52.464;16.922;2023-08-06T04:11:28;99245.22;;;14.83;100.00
77110;BME280;66062;52.464;16.922;2023-08-06T04:13:54;99251.41;;;14.84;100.00
77110;BME280;66062;52.464;16.922;2023-08-06T04:16:20;99261.09;;;14.78;100.00
77110;BME280;66062;52.464;16.922;2023-08-06T04:18:46;99263.03;;;14.91;100.00
77110;BME280;66062;52.464;16.922;2023-08-06T04:21:12;99265.69;;;14.84;100.00
77110;BME280;66062;52.464;16.922;2023-08-06T04:23:37;99267.16;;;14.87;100.00
77110;BME280;66062;52.464;16.922;2023-08-06T04:26:02;99239.41;;;14.80;100.00
77110;BME280;66062;52.464;16.922;2023-08-06T04:28:28;99240.06;;;14.82;100.00
77110;BME280;66062;52.464;16.922;2023-08-06T04:30:53;99220.59;;;14.73;100.00
77110;BME280;66062;52.464;16.922;2023-08-06T04:33:20;99219.78;;;14.73;100.00
77110;BME280;66062;52.464;16.922;2023-08-06T04:35:45;99226.16;;;14.72;100.00
77110;BME280;66062;52.464;16.922;2023-08-06T04:38:11;99207.19;;;14.80;100.00
77110;BME280;66062;52.464;16.922;2023-08-06T04:40:37;99215.81;;;14.69;100.00
77110;BME280;66062;52.464;16.922;2023-08-06T04:43:02;99213.78;;;14.71;100.00
77110;BME280;66062;52.464;16.922;2023-08-06T04:45:28;99225.34;;;14.71;100.00
77110;BME280;66062;52.464;16.922;2023-08-06T04:47:53;99242.28;;;14.72;100.00
77110;BME280;66062;52.464;16.922;2023-08-06T04:50:22;99252.81;;;14.73;100.00
77110;BME280;66062;52.464;16.922;2023-08-06T04:52:47;99264.25;;;14.88;100.00
77110;BME280;66062;52.464;16.922;2023-08-06T04:55:12;99278.72;;;14.94;100.00
77110;BME280;66062;52.464;16.922;2023-08-06T04:57:38;99286.19;;;14.92;100.00
77110;BME280;66062;52.464;16.922;2023-08-06T05:00:04;99275.16;;;14.80;100.00
77110;BME280;66062;52.464;16.922;2023-08-06T05:02:30;99277.38;;;14.70;100.00
77110;BME280;66062;52.464;16.922;2023-08-06T05:04:57;99281.56;;;14.73;100.00
77110;BME280;66062;52.464;16.922;2023-08-06T05:07:22;99271.66;;;14.80;100.00
77110;BME280;66062;52.464;16.922;2023-08-06T05:09:48;99269.56;;;14.75;100.00
77110;BME280;66062;52.464;16.922;2023-08-06T05:12:13;99262.53;;;14.68;100.00
77110;BME280;66062;52.464;16.922;2023-08-06T05:14:38;99262.75;;;14.73;100.00
77110;BME280;66062;52.464;16.922;2023-08-06T05:17:04;99273.69;;;14.71;100.00
77110;BME280;66062;52.464;16.922;2023-08-06T05:19:29;99277.81;;;14.74;100.00
77110;BME280;66062;52.464;16.922;2023-08-06T05:21:55;99277.19;;;14.72;100.00
77110;BME280;66062;52.464;16.922;2023-08-06T05:24:20;99267.66;;;14.69;100.00
77110;BME280;66062;52.464;16.922;2023-08-06T05:26:45;99250.91;;;14.61;100.00
77110;BME280;66062;52.464;16.922;2023-08-06T05:29:12;99227.75;;;14.60;100.00
77110;BME280;66062;52.464;16.922;2023-08-06T05:31:38;99227.94;;;14.51;100.00
77110;BME280;66062;52.464;16.922;2023-08-06T05:34:03;99213.88;;;14.49;100.00
77110;BME280;66062;52.464;16.922;2023-08-06T05:36:28;99203.91;;;14.37;100.00
77110;BME280;66062;52.464;16.922;2023-08-06T05:38:54;99203.53;;;14.46;100.00
77110;BME280;66062;52.464;16.922;2023-08-06T05:41:19;99193.19;;;14.43;100.00
77110;BME280;66062;52.464;16.922;2023-08-06T05:43:45;99200.22;;;14.44;100.00
77110;BME280;66062;52.464;16.922;2023-08-06T05:46:10;99205.78;;;14.43;100.00
77110;BME280;66062;52.464;16.922;2023-08-06T05:48:36;99189.25;;;14.39;100.00
77110;BME280;66062;52.464;16.922;2023-08-06T05:51:01;99187.63;;;14.45;100.00
77110;BME280;66062;52.464;16.922;2023-08-06T05:53:27;99190.50;;;14.43;100.00
77110;BME280;66062;52.464;16.922;2023-08-06T05:55:52;99202.53;;;14.54;100.00
77110;BME280;66062;52.464;16.922;2023-08-06T05:58:17;99225.25;;;14.51;100.00
77110;BME280;66062;52.464;16.922;2023-08-06T06:00:45;99207.06;;;14.53;100.00
77110;BME280;66062;52.464;16.922;2023-08-06T06:03:10;99204.16;;;14.48;100.00
77110;BME280;66062;52.464;16.922;2023-08-06T06:05:38;99218.88;;;14.52;100.00
77110;BME280;66062;52.464;16.922;2023-08-06T06:08:04;99216.41;;;14.58;100.00
77110;BME280;66062;52.464;16.922;2023-08-06T06:10:29;99203.78;;;14.51;100.00
77110;BME280;66062;52.464;16.922;2023-08-06T06:12:54;99181.47;;;14.51;100.00
77110;BME280;66062;52.464;16.922;2023-08-06T06:15:20;99160.81;;;14.58;100.00
77110;BME280;66062;52.464;16.922;2023-08-06T06:17:46;99168.47;;;14.54;100.00
77110;BME280;66062;52.464;16.922;2023-08-06T06:20:12;99168.31;;;14.63;100.00
77110;BME280;66062;52.464;16.922;2023-08-06T06:22:37;99169.47;;;14.53;100.00
77110;BME280;66062;52.464;16.922;2023-08-06T06:25:03;99168.28;;;14.56;100.00
77110;BME280;66062;52.464;16.922;2023-08-06T06:27:28;99163.72;;;14.57;100.00
77110;BME280;66062;52.464;16.922;2023-08-06T06:29:54;99152.53;;;14.53;100.00
77110;BME280;66062;52.464;16.922;2023-08-06T06:32:20;99137.25;;;14.53;100.00
77110;BME280;66062;52.464;16.922;2023-08-06T06:34:45;99143.91;;;14.58;100.00
77110;BME280;66062;52.464;16.922;2023-08-06T06:37:11;99136.66;;;14.51;100.00
77110;BME280;66062;52.464;16.922;2023-08-06T06:39:36;99114.78;;;14.61;100.00
77110;BME280;66062;52.464;16.922;2023-08-06T06:42:02;99100.50;;;14.54;100.00
77110;BME280;66062;52.464;16.922;2023-08-06T06:44:27;99091.03;;;14.51;100.00
77110;BME280;66062;52.464;16.922;2023-08-06T06:46:53;99095.59;;;14.58;100.00
77110;BME280;66062;52.464;16.922;2023-08-06T06:49:18;99103.19;;;14.54;100.00
77110;BME280;66062;52.464;16.922;2023-08-06T06:51:44;99098.47;;;14.56;100.00
77110;BME280;66062;52.464;16.922;2023-08-06T06:54:09;99083.59;;;14.73;100.00
77110;BME280;66062;52.464;16.922;2023-08-06T06:56:35;99090.66;;;14.81;100.00
77110;BME280;66062;52.464;16.922;2023-08-06T06:59:00;99085.72;;;14.78;100.00
77110;BME280;66062;52.464;16.922;2023-08-06T07:01:25;99101.41;;;14.81;100.00
77110;BME280;66062;52.464;16.922;2023-08-06T07:03:51;99099.75;;;14.80;100.00
77110;BME280;66062;52.464;16.922;2023-08-06T07:06:16;99091.50;;;14.88;100.00
77110;BME280;66062;52.464;16.922;2023-08-06T07:08:43;99083.84;;;14.85;100.00
77110;BME280;66062;52.464;16.922;2023-08-06T07:11:09;99084.06;;;14.90;100.00
77110;BME280;66062;52.464;16.922;2023-08-06T07:13:34;99085.09;;;15.09;100.00
77110;BME280;66062;52.464;16.922;2023-08-06T07:16:00;99063.38;;;15.30;100.00
77110;BME280;66062;52.464;16.922;2023-08-06T07:18:25;99057.41;;;15.15;100.00
77110;BME280;66062;52.464;16.922;2023-08-06T07:20:51;99050.56;;;14.99;100.00
77110;BME280;66062;52.464;16.922;2023-08-06T07:23:21;99052.03;;;14.95;100.00
77110;BME280;66062;52.464;16.922;2023-08-06T07:25:47;99048.53;;;14.88;100.00
77110;BME280;66062;52.464;16.922;2023-08-06T07:28:13;99047.69;;;14.81;100.00
77110;BME280;66062;52.464;16.922;2023-08-06T07:30:40;99048.09;;;14.84;100.00
77110;BME280;66062;52.464;16.922;2023-08-06T07:33:05;99043.75;;;14.83;100.00
77110;BME280;66062;52.464;16.922;2023-08-06T07:35:31;99030.97;;;14.92;100.00
77110;BME280;66062;52.464;16.922;2023-08-06T07:37:56;99040.03;;;14.91;100.00
77110;BME280;66062;52.464;16.922;2023-08-06T07:40:22;99031.16;;;14.97;100.00
77110;BME280;66062;52.464;16.922;2023-08-06T07:42:47;99036.53;;;15.04;100.00
77110;BME280;66062;52.464;16.922;2023-08-06T07:45:14;99045.63;;;15.09;100.00
77110;BME280;66062;52.464;16.922;2023-08-06T07:47:39;99042.13;;;15.02;100.00
77110;BME280;66062;52.464;16.922;2023-08-06T07:50:05;99035.91;;;15.02;100.00
77110;BME280;66062;52.464;16.922;2023-08-06T07:52:30;99044.19;;;15.00;100.00
77110;BME280;66062;52.464;16.922;2023-08-06T07:54:56;99039.22;;;15.04;100.00
77110;BME280;66062;52.464;16.922;2023-08-06T07:57:21;99039.81;;;14.99;100.00
77110;BME280;66062;52.464;16.922;2023-08-06T07:59:47;99036.94;;;15.07;100.00
77110;BME280;66062;52.464;16.922;2023-08-06T08:02:12;99036.53;;;15.10;100.00
77110;BME280;66062;52.464;16.922;2023-08-06T08:04:37;99030.13;;;15.11;100.00
77110;BME280;66062;52.464;16.922;2023-08-06T08:07:03;99021.84;;;15.19;100.00
77110;BME280;66062;52.464;16.922;2023-08-06T08:09:29;99022.88;;;15.12;100.00
77110;BME280;66062;52.464;16.922;2023-08-06T08:11:55;99023.91;;;15.11;100.00
77110;BME280;66062;52.464;16.922;2023-08-06T08:14:20;99022.91;;;15.18;100.00
77110;BME280;66062;52.464;16.922;2023-08-06T08:16:46;99012.16;;;15.18;100.00
77110;BME280;66062;52.464;16.922;2023-08-06T08:19:11;99026.38;;;15.25;100.00
77110;BME280;66062;52.464;16.922;2023-08-06T08:21:37;99013.56;;;15.21;100.00
77110;BME280;66062;52.464;16.922;2023-08-06T08:24:04;99026.38;;;15.25;100.00
77110;BME280;66062;52.464;16.922;2023-08-06T08:26:30;99022.88;;;15.31;100.00
77110;BME280;66062;52.464;16.922;2023-08-06T08:28:56;99028.66;;;15.22;100.00
77110;BME280;66062;52.464;16.922;2023-08-06T08:31:22;99037.34;;;15.24;100.00
77110;BME280;66062;52.464;16.922;2023-08-06T08:33:47;99032.38;;;15.27;100.00
77110;BME280;66062;52.464;16.922;2023-08-06T08:36:13;99022.47;;;15.28;100.00
77110;BME280;66062;52.464;16.922;2023-08-06T08:38:38;99026.78;;;15.35;100.00
77110;BME280;66062;52.464;16.922;2023-08-06T08:41:04;99019.97;;;15.33;100.00
77110;BME280;66062;52.464;16.922;2023-08-06T08:43:30;99012.94;;;15.32;100.00
77110;BME280;66062;52.464;16.922;2023-08-06T08:45:56;99004.69;;;15.33;100.00
77110;BME280;66062;52.464;16.922;2023-08-06T08:48:24;98983.97;;;15.40;100.00
77110;BME280;66062;52.464;16.922;2023-08-06T08:50:51;98981.88;;;15.49;100.00
77110;BME280;66062;52.464;16.922;2023-08-06T08:53:17;98975.25;;;15.45;100.00
77110;BME280;66062;52.464;16.922;2023-08-06T08:55:43;98958.50;;;15.50;100.00
77110;BME280;66062;52.464;16.922;2023-08-06T08:58:09;98942.81;;;15.53;100.00
77110;BME280;66062;52.464;16.922;2023-08-06T09:00:35;98931.59;;;15.63;100.00
77110;BME280;66062;52.464;16.922;2023-08-06T09:03:02;98935.56;;;15.54;100.00
77110;BME280;66062;52.464;16.922;2023-08-06T09:05:31;98933.06;;;15.59;100.00
77110;BME280;66062;52.464;16.922;2023-08-06T09:08:02;98933.47;;;15.56;100.00
77110;BME280;66062;52.464;16.922;2023-08-06T09:10:28;98936.34;;;15.61;100.00
77110;BME280;66062;52.464;16.922;2023-08-06T09:12:55;98933.28;;;15.57;100.00
77110;BME280;66062;52.464;16.922;2023-08-06T09:15:24;98934.75;;;15.53;100.00
77110;BME280;66062;52.464;16.922;2023-08-06T09:17:49;98927.69;;;15.46;100.00
77110;BME280;66062;52.464;16.922;2023-08-06T09:20:16;98926.09;;;15.38;100.00
77110;BME280;66062;52.464;16.922;2023-08-06T09:22:41;98928.78;;;15.25;100.00
77110;BME280;66062;52.464;16.922;2023-08-06T09:25:07;98922.44;;;15.13;100.00
77110;BME280;66062;52.464;16.922;2023-08-06T09:27:37;98921.22;;;15.02;100.00
77110;BME280;66062;52.464;16.922;2023-08-06T09:30:03;98921.03;;;14.97;100.00
77110;BME280;66062;52.464;16.922;2023-08-06T09:32:49;98906.34;;;14.86;100.00
77110;BME280;66062;52.464;16.922;2023-08-06T09:35:18;98890.25;;;14.86;100.00
77110;BME280;66062;52.464;16.922;2023-08-06T09:37:44;98885.28;;;14.90;100.00
77110;BME280;66062;52.464;16.922;2023-08-06T09:40:32;98871.25;;;14.88;100.00
77110;BME280;66062;52.464;16.922;2023-08-06T09:42:58;98866.91;;;14.87;100.00
77110;BME280;66062;52.464;16.922;2023-08-06T09:45:35;98854.94;;;14.83;100.00
77110;BME280;66062;52.464;16.922;2023-08-06T09:48:03;98852.66;;;14.80;100.00
77110;BME280;66062;52.464;16.922;2023-08-06T09:50:30;98856.59;;;14.77;100.00
77110;BME280;66062;52.464;16.922;2023-08-06T09:53:00;98847.47;;;14.78;100.00
77110;BME280;66062;52.464;16.922;2023-08-06T09:55:27;98853.28;;;14.82;100.00
77110;BME280;66062;52.464;16.922;2023-08-06T09:57:53;98859.66;;;14.81;100.00
77110;BME280;66062;52.464;16.922;2023-08-06T10:00:18;98863.00;;;14.76;100.00
77110;BME280;66062;52.464;16.922;2023-08-06T10:02:45;98866.69;;;14.82;100.00
77110;BME280;66062;52.464;16.922;2023-08-06T10:05:11;98863.59;;;14.85;100.00
77110;BME280;66062;52.464;16.922;2023-08-06T10:07:37;98860.91;;;14.85;100.00
77110;BME280;66062;52.464;16.922;2023-08-06T10:10:05;98854.69;;;14.91;100.00
77110;BME280;66062;52.464;16.922;2023-08-06T10:12:47;98842.28;;;14.96;100.00
77110;BME280;66062;52.464;16.922;2023-08-06T10:15:17;98810.44;;;14.93;100.00
77110;BME280;66062;52.464;16.922;2023-08-06T10:17:45;98803.66;;;14.91;100.00
77110;BME280;66062;52.464;16.922;2023-08-06T10:20:12;98796.81;;;14.95;100.00
77110;BME280;66062;52.464;16.922;2023-08-06T10:22:43;98824.50;;;14.95;100.00
77110;BME280;66062;52.464;16.922;2023-08-06T10:25:09;98833.38;;;14.96;100.00
77110;BME280;66062;52.464;16.922;2023-08-06T10:27:40;98817.03;;;15.04;100.00
77110;BME280;66062;52.464;16.922;2023-08-06T10:30:31;98779.84;;;15.01;100.00
77110;BME280;66062;52.464;16.922;2023-08-06T10:33:04;98791.22;;;15.03;100.00
77110;BME280;66062;52.464;16.922;2023-08-06T10:35:43;98835.25;;;15.02;100.00
77110;BME280;66062;52.464;16.922;2023-08-06T10:41:03;98861.25;;;15.08;100.00
77110;BME280;66062;52.464;16.922;2023-08-06T10:43:35;98837.69;;;15.04;100.00
77110;BME280;66062;52.464;16.922;2023-08-06T10:46:04;98798.84;;;14.99;100.00
77110;BME280;66062;52.464;16.922;2023-08-06T10:48:35;98785.47;;;14.93;100.00
77110;BME280;66062;52.464;16.922;2023-08-06T10:51:09;98811.53;;;14.86;100.00
77110;BME280;66062;52.464;16.922;2023-08-06T10:53:35;98811.72;;;14.84;100.00
77110;BME280;66062;52.464;16.922;2023-08-06T10:56:01;98793.94;;;14.90;100.00
77110;BME280;66062;52.464;16.922;2023-08-06T10:58:33;98787.75;;;14.89;100.00
77110;BME280;66062;52.464;16.922;2023-08-06T11:00:59;98772.66;;;14.88;100.00
77110;BME280;66062;52.464;16.922;2023-08-06T11:03:26;98770.97;;;14.94;100.00
77110;BME280;66062;52.464;16.922;2023-08-06T11:05:54;98798.09;;;14.86;100.00
77110;BME280;66062;52.464;16.922;2023-08-06T11:08:26;98774.97;;;14.78;100.00
77110;BME280;66062;52.464;16.922;2023-08-06T11:10:52;98770.41;;;14.79;100.00
77110;BME280;66062;52.464;16.922;2023-08-06T11:13:17;98750.97;;;14.83;100.00
77110;BME280;66062;52.464;16.922;2023-08-06T11:15:44;98754.09;;;14.80;100.00
77110;BME280;66062;52.464;16.922;2023-08-06T11:18:10;98788.56;;;14.83;100.00
77110;BME280;66062;52.464;16.922;2023-08-06T11:20:36;98828.25;;;14.88;100.00
77110;BME280;66062;52.464;16.922;2023-08-06T11:23:02;98866.47;;;14.96;100.00
77110;BME280;66062;52.464;16.922;2023-08-06T11:25:27;98841.63;;;15.01;100.00
77110;BME280;66062;52.464;16.922;2023-08-06T11:27:53;98822.66;;;14.96;100.00
77110;BME280;66062;52.464;16.922;2023-08-06T11:30:18;98810.63;;;14.98;100.00
77110;BME280;66062;52.464;16.922;2023-08-06T11:32:47;98813.56;;;14.90;100.00
77110;BME280;66062;52.464;16.922;2023-08-06T11:35:14;98772.66;;;14.88;100.00
77110;BME280;66062;52.464;16.922;2023-08-06T11:37:44;98726.00;;;14.83;100.00
77110;BME280;66062;52.464;16.922;2023-08-06T11:40:11;98692.53;;;14.79;100.00
77110;BME280;66062;52.464;16.922;2023-08-06T11:42:37;98720.00;;;14.87;100.00
77110;BME280;66062;52.464;16.922;2023-08-06T11:45:03;98763.16;;;14.92;100.00
77110;BME280;66062;52.464;16.922;2023-08-06T11:47:30;98804.03;;;15.01;100.00
77110;BME280;66062;52.464;16.922;2023-08-06T11:49:55;98810.88;;;14.97;100.00
77110;BME280;66062;52.464;16.922;2023-08-06T11:52:27;98817.28;;;14.96;100.00
77110;BME280;66062;52.464;16.922;2023-08-06T11:55:04;98824.06;;;15.05;100.00
77110;BME280;66062;52.464;16.922;2023-08-06T11:57:44;98828.59;;;15.05;100.00
77110;BME280;66062;52.464;16.922;2023-08-06T12:00:11;98845.78;;;14.97;100.00
77110;BME280;66062;52.464;16.922;2023-08-06T12:02:41;98843.50;;;15.07;100.00
77110;BME280;66062;52.464;16.922;2023-08-06T12:05:18;98832.13;;;15.05;100.00
77110;BME280;66062;52.464;16.922;2023-08-06T12:07:51;98827.75;;;15.11;100.00
77110;BME280;66062;52.464;16.922;2023-08-06T12:10:17;98815.50;;;15.28;100.00
77110;BME280;66062;52.464;16.922;2023-08-06T12:12:45;98823.50;;;15.34;100.00
77110;BME280;66062;52.464;16.922;2023-08-06T12:15:11;98822.91;;;15.32;100.00
77110;BME280;66062;52.464;16.922;2023-08-06T12:17:36;98826.19;;;15.34;100.00
77110;BME280;66062;52.464;16.922;2023-08-06T12:20:04;98821.44;;;15.36;100.00
77110;BME280;66062;52.464;16.922;2023-08-06T12:22:30;98820.22;;;15.32;100.00
77110;BME280;66062;52.464;16.922;2023-08-06T12:25:00;98786.28;;;15.38;100.00
77110;BME280;66062;52.464;16.922;2023-08-06T12:27:26;98741.28;;;15.27;100.00
77110;BME280;66062;52.464;16.922;2023-08-06T12:29:52;98749.50;;;15.32;100.00
77110;BME280;66062;52.464;16.922;2023-08-06T12:32:17;98758.97;;;15.41;100.00
77110;BME280;66062;52.464;16.922;2023-08-06T12:34:44;98761.38;;;15.56;100.00
77110;BME280;66062;52.464;16.922;2023-08-06T12:37:09;98743.38;;;15.56;100.00
77110;BME280;66062;52.464;16.922;2023-08-06T12:39:36;98742.34;;;15.57;100.00
77110;BME280;66062;52.464;16.922;2023-08-06T12:42:03;98736.16;;;15.57;100.00
77110;BME280;66062;52.464;16.922;2023-08-06T12:44:29;98723.66;;;15.69;100.00